createdAt,value
2022-10-21T00:01:06.303Z,54.67
2022-10-21T00:03:34.546Z,59.20
2022-10-21T00:06:02.521Z,59.90
2022-10-21T00:08:30.676Z,54.20
2022-10-21T00:11:00.840Z,48.87
2022-10-21T00:13:32.646Z,49.50
2022-10-21T00:16:04.733Z,52.73
2022-10-21T00:18:33.832Z,55.53
2022-10-21T00:21:01.834Z,46.97
2022-10-21T00:23:29.810Z,53.87
2022-10-21T00:25:58.978Z,46.50
2022-10-21T00:28:32.099Z,45.83
2022-10-21T00:31:01.591Z,44.27
2022-10-21T00:33:29.840Z,43.20
2022-10-21T00:36:04.284Z,46.30
2022-10-21T00:38:34.881Z,36.90
2022-10-21T00:41:03.273Z,37.73
2022-10-21T00:43:31.499Z,36.57
2022-10-21T00:46:04.262Z,39.33
2022-10-21T00:48:36.904Z,41.90
2022-10-21T00:51:08.171Z,33.93
2022-10-21T00:53:40.653Z,46.97
2022-10-21T00:56:15.527Z,36.20
2022-10-21T00:58:46.415Z,33.33
2022-10-21T01:01:19.222Z,34.30
2022-10-21T01:03:51.906Z,38.27
2022-10-21T01:06:23.115Z,30.00
2022-10-21T01:08:55.520Z,37.60
2022-10-21T01:11:25.260Z,32.30
2022-10-21T01:14:08.555Z,37.37
2022-10-21T01:16:48.242Z,32.13
2022-10-21T01:19:56.243Z,70.37
2022-10-21T01:22:40.086Z,58.67
2022-10-21T01:25:30.824Z,31.30
2022-10-21T01:28:08.766Z,65.73
2022-10-21T01:30:40.307Z,50.20
2022-10-21T01:33:31.404Z,104.60
2022-10-21T01:36:05.611Z,334.90
2022-10-21T01:38:42.221Z,200.57
2022-10-21T01:41:16.143Z,54.07
2022-10-21T01:43:50.754Z,37.03
2022-10-21T01:46:27.202Z,82.53
2022-10-21T01:49:01.217Z,74.77
2022-10-21T01:51:38.912Z,28.07
2022-10-21T01:54:12.150Z,35.73
2022-10-21T01:56:42.067Z,80.27
2022-10-21T01:59:13.317Z,74.30
2022-10-21T02:01:45.141Z,25.80
2022-10-21T02:04:16.977Z,22.37
2022-10-21T02:06:44.986Z,28.77
2022-10-21T02:09:14.125Z,28.23
2022-10-21T02:11:57.992Z,28.03
2022-10-21T02:14:31.385Z,33.80
2022-10-21T02:17:01.428Z,20.13
2022-10-21T02:22:06.656Z,24.90
2022-10-21T02:24:40.038Z,25.50
2022-10-21T02:27:08.099Z,21.23
2022-10-21T02:29:39.449Z,20.77
2022-10-21T02:32:24.399Z,30.03
2022-10-21T02:35:04.298Z,25.37
2022-10-21T02:40:16.807Z,26.73
2022-10-21T02:42:47.912Z,128.57
2022-10-21T02:45:18.551Z,82.03
2022-10-21T02:47:50.005Z,26.93
2022-10-21T02:50:19.124Z,29.63
2022-10-21T02:52:47.189Z,30.57
2022-10-21T02:55:15.165Z,51.60
2022-10-21T02:57:43.051Z,27.30
2022-10-21T03:00:12.166Z,49.70
2022-10-21T03:02:40.367Z,29.33
2022-10-21T03:05:12.668Z,39.53
2022-10-21T03:07:41.042Z,153.00
2022-10-21T03:10:10.046Z,40.03
2022-10-21T03:12:38.051Z,31.70
2022-10-21T03:15:06.764Z,32.33
2022-10-21T03:17:34.801Z,31.73
2022-10-21T03:20:02.702Z,54.93
2022-10-21T03:22:31.948Z,26.17
2022-10-21T03:24:59.886Z,26.63
2022-10-21T03:27:28.071Z,75.50
2022-10-21T03:29:56.124Z,30.47
2022-10-21T03:32:24.348Z,30.27
2022-10-21T03:34:52.206Z,34.30
2022-10-21T03:37:20.089Z,29.33
2022-10-21T03:39:49.519Z,28.13
2022-10-21T03:42:17.413Z,26.17
2022-10-21T03:44:45.298Z,30.23
2022-10-21T03:47:14.114Z,27.87
2022-10-21T03:49:41.992Z,32.03
2022-10-21T03:52:10.211Z,40.60
2022-10-21T03:54:38.101Z,33.23
2022-10-21T03:57:07.392Z,36.07
2022-10-21T03:59:35.302Z,28.40
2022-10-21T04:02:03.286Z,31.07
2022-10-21T04:04:31.226Z,38.47
2022-10-21T04:06:59.225Z,28.77
2022-10-21T04:09:27.371Z,30.80
2022-10-21T04:11:55.291Z,31.90
2022-10-21T04:14:24.614Z,33.37
2022-10-21T04:17:02.044Z,29.70
2022-10-21T04:19:30.448Z,36.80
2022-10-21T04:21:58.266Z,33.87
2022-10-21T04:24:26.263Z,31.77
2022-10-21T04:26:54.156Z,35.80
2022-10-21T04:29:22.277Z,30.23
2022-10-21T04:31:51.773Z,31.73
2022-10-21T04:34:19.661Z,39.73
2022-10-21T04:36:49.934Z,37.20
2022-10-21T04:39:17.906Z,42.50
2022-10-21T04:41:47.788Z,48.40
2022-10-21T04:44:15.713Z,38.97
2022-10-21T04:46:43.590Z,38.83
2022-10-21T04:49:12.874Z,34.77
2022-10-21T04:51:40.820Z,38.53
2022-10-21T04:54:08.809Z,35.87
2022-10-21T04:56:36.688Z,39.80
2022-10-21T04:59:04.866Z,43.70
2022-10-21T05:01:32.894Z,47.30
2022-10-21T05:04:00.821Z,53.23
2022-10-21T05:06:30.211Z,39.53
2022-10-21T05:08:58.289Z,38.30
2022-10-21T05:11:26.358Z,40.47
2022-10-21T05:13:55.876Z,47.43
2022-10-21T05:16:24.466Z,50.03
2022-10-21T05:18:52.380Z,47.97
2022-10-21T05:21:20.341Z,45.63
2022-10-21T05:23:49.577Z,38.77
2022-10-21T05:26:17.549Z,56.03
2022-10-21T05:28:45.478Z,44.00
2022-10-21T05:31:13.392Z,44.40
2022-10-21T05:33:41.251Z,42.13
2022-10-21T05:36:09.395Z,44.77
2022-10-21T05:38:37.524Z,55.03
2022-10-21T05:41:10.927Z,44.17
2022-10-21T05:43:39.115Z,38.90
2022-10-21T05:46:08.520Z,52.17
2022-10-21T05:48:36.468Z,38.37
2022-10-21T05:51:05.189Z,41.83
2022-10-21T05:53:33.149Z,48.60
2022-10-21T05:56:02.786Z,65.87
2022-10-21T05:58:33.587Z,72.23
2022-10-21T06:01:02.496Z,59.13
2022-10-21T06:03:33.247Z,80.67
2022-10-21T06:06:03.996Z,55.93
2022-10-21T06:08:33.364Z,48.27
2022-10-21T06:11:01.878Z,47.00
2022-10-21T06:13:31.710Z,92.93
2022-10-21T06:16:00.440Z,46.87
2022-10-21T06:18:29.054Z,58.00
2022-10-21T06:20:57.026Z,54.73
2022-10-21T06:23:25.063Z,76.63
2022-10-21T06:25:57.111Z,96.97
2022-10-21T06:28:25.763Z,75.27
2022-10-21T06:30:55.485Z,49.17
2022-10-21T06:33:27.165Z,44.10
2022-10-21T06:35:55.728Z,44.30
2022-10-21T06:38:26.510Z,48.77
2022-10-21T06:41:01.278Z,40.47
2022-10-21T06:43:29.237Z,86.40
2022-10-21T06:46:02.280Z,161.07
2022-10-21T06:48:32.466Z,47.17
2022-10-21T06:51:01.189Z,51.40
2022-10-21T06:53:34.044Z,59.93
2022-10-21T06:56:07.903Z,133.87
2022-10-21T06:58:36.592Z,54.03
2022-10-21T07:01:21.272Z,54.17
2022-10-21T07:03:58.032Z,56.63
2022-10-21T07:06:26.088Z,69.07
2022-10-21T07:09:00.467Z,58.17
2022-10-21T07:11:30.446Z,71.83
2022-10-21T07:14:00.174Z,73.87
2022-10-21T07:16:31.327Z,65.03
2022-10-21T07:19:02.555Z,61.63
2022-10-21T07:21:32.524Z,55.63
2022-10-21T07:24:01.553Z,46.03
2022-10-21T07:26:33.707Z,48.40
2022-10-21T07:29:02.362Z,52.90
2022-10-21T07:31:34.133Z,52.67
2022-10-21T07:36:38.460Z,46.07
2022-10-21T07:39:10.714Z,39.97
2022-10-21T07:41:42.249Z,48.77
2022-10-21T07:44:15.455Z,38.77
2022-10-21T07:46:45.787Z,42.73
2022-10-21T07:49:17.088Z,32.57
2022-10-21T07:51:46.188Z,31.40
2022-10-21T07:54:15.442Z,39.17
2022-10-21T07:56:45.302Z,33.20
2022-10-21T07:59:14.628Z,29.23
2022-10-21T08:01:45.862Z,50.30
2022-10-21T08:04:15.570Z,29.87
2022-10-21T08:06:44.204Z,36.97
2022-10-21T08:09:12.379Z,32.93
2022-10-21T08:11:40.568Z,33.73
2022-10-21T08:14:10.787Z,32.37
2022-10-21T08:16:39.434Z,42.47
2022-10-21T08:19:09.704Z,42.73
2022-10-21T08:21:38.742Z,34.17
2022-10-21T08:24:07.563Z,36.27
2022-10-21T08:26:38.275Z,35.27
2022-10-21T08:29:06.878Z,30.70
2022-10-21T08:31:35.286Z,41.23
2022-10-21T08:34:03.589Z,47.73
2022-10-21T08:36:33.327Z,34.97
2022-10-21T08:39:03.275Z,36.67
2022-10-21T08:41:51.256Z,32.33
2022-10-21T08:44:29.403Z,35.43
2022-10-21T08:47:03.886Z,28.07
2022-10-21T08:49:41.901Z,37.03
2022-10-21T08:52:16.444Z,30.93
2022-10-21T08:54:48.646Z,28.47
2022-10-21T08:57:16.691Z,29.43
2022-10-21T08:59:44.731Z,23.63
2022-10-21T09:02:43.940Z,27.73
2022-10-21T09:05:27.671Z,37.67
2022-10-21T09:08:07.211Z,32.27
2022-10-21T09:10:48.467Z,33.67
2022-10-21T09:13:23.725Z,32.37
2022-10-21T09:16:01.133Z,29.20
2022-10-21T09:18:52.604Z,30.97
2022-10-21T09:21:27.149Z,30.80
2022-10-21T09:24:03.812Z,29.07
2022-10-21T09:26:38.874Z,27.80
2022-10-21T09:29:31.907Z,26.20
2022-10-21T09:32:10.817Z,29.73
2022-10-21T09:35:00.707Z,28.27
2022-10-21T09:37:35.561Z,23.13
2022-10-21T09:40:14.858Z,25.03
2022-10-21T09:42:47.541Z,21.13
2022-10-21T09:45:24.878Z,22.73
2022-10-21T09:47:59.889Z,22.50
2022-10-21T09:50:29.247Z,24.80
2022-10-21T09:53:05.939Z,26.27
2022-10-21T09:55:35.995Z,26.70
2022-10-21T09:58:05.137Z,23.37
2022-10-21T10:00:44.964Z,19.23
2022-10-21T10:03:13.353Z,19.33
2022-10-21T10:05:44.622Z,27.03
2022-10-21T10:08:47.412Z,21.30
2022-10-21T10:11:22.452Z,21.47
2022-10-21T10:13:51.956Z,23.93
2022-10-21T10:16:23.751Z,25.13
2022-10-21T10:18:53.621Z,24.87
2022-10-21T10:21:22.823Z,21.10
2022-10-21T10:23:52.526Z,23.27
2022-10-21T10:26:30.365Z,22.93
2022-10-21T10:29:01.722Z,19.67
2022-10-21T10:31:33.856Z,17.97
2022-10-21T10:34:05.493Z,17.80
2022-10-21T10:36:37.155Z,21.07
2022-10-21T10:39:10.055Z,20.47
2022-10-21T10:41:41.707Z,20.90
2022-10-21T10:44:19.837Z,14.73
2022-10-21T10:46:55.402Z,16.70
2022-10-21T10:49:23.458Z,16.10
2022-10-21T10:52:06.915Z,16.33
2022-10-21T10:54:35.227Z,14.47
2022-10-21T10:57:11.318Z,14.10
2022-10-21T10:59:43.975Z,15.47
2022-10-21T11:02:25.711Z,13.00
2022-10-21T11:05:13.351Z,14.43
2022-10-21T11:07:46.178Z,12.80
2022-10-21T11:10:33.753Z,16.83
2022-10-21T11:13:05.308Z,21.10
2022-10-21T11:15:54.073Z,17.37
2022-10-21T11:18:30.673Z,17.13
2022-10-21T11:21:07.234Z,14.30
2022-10-21T11:24:10.747Z,13.03
2022-10-21T11:26:47.307Z,11.33
2022-10-21T11:29:37.782Z,15.93
2022-10-21T11:32:26.739Z,12.67
2022-10-21T11:35:18.989Z,11.67
2022-10-21T11:38:05.463Z,11.20
2022-10-21T11:40:39.022Z,10.73
2022-10-21T11:43:21.122Z,12.63
2022-10-21T11:45:57.359Z,11.10
2022-10-21T11:48:41.366Z,13.80
2022-10-21T11:51:20.864Z,11.20
2022-10-21T11:54:02.145Z,12.87
2022-10-21T11:56:39.892Z,11.43
2022-10-21T11:59:21.772Z,11.57
2022-10-21T12:01:57.437Z,11.70
2022-10-21T12:04:34.353Z,10.30
2022-10-21T12:07:35.311Z,10.87
2022-10-21T12:10:11.097Z,8.70
2022-10-21T12:12:41.979Z,10.20
2022-10-21T12:15:17.329Z,11.93
2022-10-21T12:17:48.706Z,10.90
2022-10-21T12:20:23.937Z,8.37
2022-10-21T12:22:59.304Z,7.00
2022-10-21T12:25:34.699Z,7.23
2022-10-21T12:28:09.001Z,7.10
2022-10-21T12:30:44.053Z,5.97
2022-10-21T12:33:30.768Z,7.27
2022-10-21T12:36:19.073Z,6.30
2022-10-21T12:38:50.365Z,6.80
2022-10-21T12:41:43.783Z,5.23
2022-10-21T12:44:23.264Z,5.47
2022-10-21T12:46:53.278Z,5.27
2022-10-21T12:49:30.480Z,5.37
2022-10-21T12:52:05.971Z,7.77
2022-10-21T12:54:43.094Z,7.83
2022-10-21T12:57:22.067Z,6.17
2022-10-21T12:59:50.195Z,6.00
2022-10-21T13:02:28.829Z,5.90
2022-10-21T13:04:59.553Z,7.73
2022-10-21T13:07:33.653Z,6.70
2022-10-21T13:10:26.147Z,6.30
2022-10-21T13:13:33.681Z,6.57
2022-10-21T13:16:18.075Z,9.67
2022-10-21T13:19:00.323Z,6.53
2022-10-21T13:21:37.423Z,9.37
2022-10-21T13:24:16.340Z,10.27
2022-10-21T13:26:50.038Z,10.23
2022-10-21T13:29:43.400Z,8.13
2022-10-21T13:32:30.092Z,5.77
2022-10-21T13:35:06.860Z,8.40
2022-10-21T13:37:39.942Z,5.23
2022-10-21T13:40:15.714Z,7.60
2022-10-21T13:42:47.307Z,6.40
2022-10-21T13:45:26.289Z,14.67
2022-10-21T13:48:02.498Z,10.53
2022-10-21T13:50:33.663Z,7.37
2022-10-21T13:53:09.072Z,6.23
2022-10-21T13:55:36.918Z,7.03
2022-10-21T13:58:04.856Z,6.10
2022-10-21T14:00:33.420Z,5.83
2022-10-21T14:03:03.873Z,5.90
2022-10-21T14:05:37.847Z,6.63
2022-10-21T14:08:20.829Z,5.50
2022-10-21T14:10:48.962Z,6.50
2022-10-21T14:13:17.405Z,5.87
2022-10-21T14:15:46.368Z,4.53
2022-10-21T14:18:31.173Z,4.40
2022-10-21T14:21:02.191Z,5.97
2022-10-21T14:23:31.732Z,5.13
2022-10-21T14:26:06.396Z,4.00
2022-10-21T14:28:35.464Z,4.97
2022-10-21T14:33:39.340Z,5.37
2022-10-21T14:36:14.869Z,6.37
2022-10-21T14:38:52.518Z,4.83
2022-10-21T14:41:24.754Z,4.40
2022-10-21T14:43:56.969Z,6.70
2022-10-21T14:46:25.111Z,4.67
2022-10-21T14:48:59.512Z,6.10
2022-10-21T14:51:28.345Z,5.13
2022-10-21T14:53:59.743Z,5.17
2022-10-21T14:56:31.201Z,3.77
2022-10-21T14:59:01.131Z,5.87
2022-10-21T15:01:29.359Z,3.63
2022-10-21T15:03:59.774Z,4.73
2022-10-21T15:06:30.081Z,5.97
2022-10-21T15:09:19.365Z,4.17
2022-10-21T15:11:48.368Z,5.17
2022-10-21T15:14:24.027Z,5.13
2022-10-21T15:16:54.911Z,5.33
2022-10-21T15:19:25.848Z,4.50
2022-10-21T15:21:57.184Z,2.87
2022-10-21T15:24:37.882Z,8.57
2022-10-21T15:27:06.090Z,3.13
2022-10-21T15:29:38.904Z,6.10
2022-10-21T15:32:07.564Z,3.37
2022-10-21T15:34:37.362Z,2.90
2022-10-21T15:37:07.303Z,6.00
2022-10-21T15:39:36.508Z,6.83
2022-10-21T15:42:05.931Z,5.00
2022-10-21T15:44:35.160Z,3.53
2022-10-21T15:47:08.239Z,5.40
2022-10-21T15:49:38.253Z,4.03
2022-10-21T15:52:06.743Z,5.53
2022-10-21T15:54:37.527Z,4.73
2022-10-21T15:57:15.808Z,3.43
2022-10-21T15:59:44.228Z,5.60
2022-10-21T16:02:16.392Z,4.30
2022-10-21T16:04:45.199Z,5.50
2022-10-21T16:07:20.834Z,4.40
2022-10-21T16:09:50.371Z,5.70
2022-10-21T16:12:20.513Z,5.80
2022-10-21T16:14:50.596Z,4.33
2022-10-21T16:17:18.850Z,6.80
2022-10-21T16:19:46.736Z,5.60
2022-10-21T16:22:19.424Z,7.63
2022-10-21T16:24:47.358Z,7.10
2022-10-21T16:27:31.029Z,7.37
2022-10-21T16:30:15.293Z,7.57
2022-10-21T16:32:43.242Z,9.20
2022-10-21T16:35:11.420Z,5.87
2022-10-21T16:37:40.169Z,7.63
2022-10-21T16:40:18.624Z,5.67
2022-10-21T16:42:48.112Z,9.30
2022-10-21T16:45:16.752Z,7.67
2022-10-21T16:47:48.273Z,8.50
2022-10-21T16:50:21.762Z,8.43
2022-10-21T16:52:50.132Z,7.50
2022-10-21T16:55:18.574Z,7.83
2022-10-21T16:57:48.214Z,7.83
2022-10-21T17:00:17.976Z,11.83
2022-10-21T17:02:48.931Z,7.23
2022-10-21T17:05:17.005Z,9.20
2022-10-21T17:07:45.135Z,7.57
2022-10-21T17:20:51.773Z,9.30
2022-10-21T17:23:19.806Z,8.37
2022-10-21T17:25:47.749Z,8.90
2022-10-21T17:28:15.623Z,10.70
2022-10-21T17:30:44.904Z,9.80
2022-10-21T17:33:14.262Z,10.93
2022-10-21T17:35:42.376Z,10.07
2022-10-21T17:38:10.583Z,10.40
2022-10-21T17:40:42.877Z,11.80
2022-10-21T17:43:10.754Z,9.03
2022-10-21T17:45:38.771Z,10.97
2022-10-21T17:48:08.282Z,6.47
2022-10-21T17:50:38.403Z,7.90
2022-10-21T17:53:06.423Z,8.67
2022-10-21T17:55:34.324Z,8.67
2022-10-21T17:58:02.267Z,7.50
2022-10-21T18:00:30.217Z,12.07
2022-10-21T18:02:58.058Z,9.00
2022-10-21T18:05:27.373Z,7.93
2022-10-21T18:07:55.607Z,6.27
2022-10-21T18:10:23.550Z,6.97
2022-10-21T18:12:51.455Z,7.47
2022-10-21T18:15:20.144Z,8.17
2022-10-21T18:17:48.076Z,9.13
2022-10-21T18:20:17.081Z,7.00
2022-10-21T18:22:46.306Z,8.90
2022-10-21T18:25:15.397Z,6.33
2022-10-21T18:30:12.823Z,7.07
2022-10-21T18:32:41.210Z,8.87
2022-10-21T18:35:10.297Z,10.17
2022-10-21T18:37:38.555Z,9.63
2022-10-21T18:40:10.068Z,9.60
2022-10-21T18:42:38.040Z,9.67
2022-10-21T18:45:08.507Z,9.90
2022-10-21T18:47:36.720Z,9.53
2022-10-21T18:50:06.046Z,8.27
2022-10-21T18:52:34.247Z,8.93
2022-10-21T18:55:02.471Z,10.13
2022-10-21T18:57:31.863Z,8.73
2022-10-21T18:59:59.824Z,8.37
2022-10-21T19:02:27.763Z,9.03
2022-10-21T19:04:58.425Z,7.13
2022-10-21T19:07:29.236Z,8.93
2022-10-21T19:09:58.168Z,11.40
2022-10-21T19:12:26.281Z,8.37
2022-10-21T19:14:55.703Z,8.80
2022-10-21T19:17:23.731Z,8.97
2022-10-21T19:19:51.823Z,8.73
2022-10-21T19:22:20.033Z,6.70
2022-10-21T19:24:48.084Z,9.40
2022-10-21T19:27:16.200Z,13.23
2022-10-21T19:29:44.446Z,8.07
2022-10-21T19:32:16.697Z,10.67
2022-10-21T19:34:45.327Z,11.50
2022-10-21T19:37:13.564Z,8.57
2022-10-21T19:39:41.540Z,10.57
2022-10-21T19:42:09.611Z,6.30
2022-10-21T19:44:37.913Z,7.27
2022-10-21T19:47:05.899Z,7.20
2022-10-21T19:49:35.252Z,12.67
2022-10-21T19:52:05.199Z,7.83
2022-10-21T19:54:33.177Z,9.93
2022-10-21T19:57:01.127Z,9.57
2022-10-21T19:59:29.220Z,8.63
2022-10-21T20:01:57.124Z,10.73
2022-10-21T20:04:25.287Z,8.43
2022-10-21T20:09:52.961Z,11.80
2022-10-21T20:12:20.898Z,7.83
2022-10-21T20:14:48.802Z,6.20
2022-10-21T20:17:18.342Z,9.33
2022-10-21T20:19:48.453Z,8.17
2022-10-21T20:22:18.085Z,10.77
2022-10-21T20:24:46.533Z,7.07
2022-10-21T20:27:15.834Z,12.33
2022-10-21T20:29:43.767Z,11.27
2022-10-21T20:32:11.638Z,5.13
2022-10-21T20:34:39.754Z,7.13
2022-10-21T20:37:07.670Z,6.40
2022-10-21T20:39:38.334Z,6.23
2022-10-21T20:42:06.247Z,6.03
2022-10-21T20:44:34.177Z,7.77
2022-10-21T20:47:02.093Z,8.47
2022-10-21T20:49:30.026Z,7.73
2022-10-21T20:51:57.922Z,11.47
2022-10-21T20:54:28.042Z,10.50
2022-10-21T20:56:57.327Z,6.67
2022-10-21T20:59:25.222Z,7.50
2022-10-21T21:01:53.234Z,6.97
2022-10-21T21:04:23.502Z,6.57
2022-10-21T21:06:52.203Z,5.93
2022-10-21T21:09:38.114Z,6.93
2022-10-21T21:12:11.661Z,8.37
2022-10-21T21:14:40.196Z,12.53
2022-10-21T21:17:08.513Z,8.67
2022-10-21T21:19:36.468Z,15.63
2022-10-21T21:22:04.959Z,10.50
2022-10-21T21:24:33.275Z,9.90
2022-10-21T21:27:01.202Z,7.53
2022-10-21T21:29:30.492Z,10.20
2022-10-21T21:31:58.407Z,10.17
2022-10-21T21:34:26.293Z,7.27
2022-10-21T21:36:54.189Z,11.43
2022-10-21T21:39:22.074Z,9.50
2022-10-21T21:41:50.119Z,10.77
2022-10-21T21:44:18.072Z,10.40
2022-10-21T21:46:47.267Z,10.87
2022-10-21T21:49:15.357Z,10.17
2022-10-21T21:51:43.233Z,11.37
2022-10-21T21:54:11.136Z,7.63
2022-10-21T21:56:39.095Z,6.33
2022-10-21T21:59:07.085Z,10.27
2022-10-21T22:01:35.112Z,9.10
2022-10-21T22:04:04.857Z,11.27
2022-10-21T22:06:35.666Z,12.33
2022-10-21T22:09:07.521Z,9.53
2022-10-21T22:11:35.456Z,9.97
2022-10-21T22:14:03.447Z,10.40
2022-10-21T22:16:31.461Z,9.27
2022-10-21T22:19:01.432Z,9.83
2022-10-21T22:21:31.862Z,15.20
2022-10-21T22:23:59.816Z,8.80
2022-10-21T22:26:27.947Z,12.50
2022-10-21T22:28:56.359Z,9.30
2022-10-21T22:31:29.190Z,9.30
2022-10-21T22:34:00.107Z,8.50
2022-10-21T22:36:28.266Z,10.73
2022-10-21T22:38:57.890Z,10.57
2022-10-21T22:41:27.411Z,13.73
2022-10-21T22:43:55.372Z,16.20
2022-10-21T22:46:38.638Z,11.13
2022-10-21T22:49:07.321Z,13.07
2022-10-21T22:51:35.284Z,13.90
2022-10-21T22:54:11.601Z,11.17
2022-10-21T22:56:47.400Z,9.97
2022-10-21T22:59:15.278Z,12.97
2022-10-21T23:01:43.171Z,9.77
2022-10-21T23:04:11.375Z,10.90
2022-10-21T23:06:39.417Z,11.60
2022-10-21T23:09:08.828Z,15.33
2022-10-21T23:11:36.835Z,7.90
2022-10-21T23:14:08.642Z,10.80
2022-10-21T23:16:37.462Z,10.40
2022-10-21T23:19:06.110Z,15.40
2022-10-21T23:21:34.365Z,11.53
2022-10-21T23:24:02.442Z,12.70
2022-10-21T23:26:31.710Z,9.33
2022-10-21T23:28:59.641Z,7.50
2022-10-21T23:31:29.465Z,10.60
2022-10-21T23:33:57.353Z,16.20
2022-10-21T23:36:25.340Z,9.50
2022-10-21T23:38:55.777Z,10.40
2022-10-21T23:41:23.841Z,10.23
2022-10-21T23:43:53.073Z,8.53
2022-10-21T23:46:21.114Z,14.50
2022-10-21T23:48:49.108Z,10.73
2022-10-21T23:51:17.034Z,11.50
2022-10-21T23:53:44.920Z,13.33
2022-10-21T23:56:13.123Z,11.23
2022-10-21T23:58:40.978Z,13.07
